00:49
Airports
History
Links
Donate
Help keep this website running!
PayPal
Bitcoin
This page is community maintained. The information is intended for PC simulator navigation or reference.
Always use approved charts for navigation.
SBKP
Sao Paulo Viracopos
Sao Paulo Viracopos (SBKP)
Campinas, São Paulo, Brazil (13054)
(C)
Lat/Lng:23° 0' 26.58" S / 47° 8' 4.28" W
-23.007384 / -47.134522
Elevation:2170'ft / 661mMSL
ID / ICAO:SBKP
Runways:1
Longest:15-33
Asphalt 3,235m / 10,613ft
Controlled:Yes
METAR00:00 GMT 2017-09-22
Altimeter: 30.12
Visibility: 6.2 statute miles
Wind: 5 knots (from 120°)
Temp: 23°c / 73°f
Humidity: 46.7%

METAR: SBKP 220000Z 12005KT CAVOK 23/11 Q1020

(Powered by phpweather)
Airport Radio Frequencies
Ground: 121.9
Tower: 118.25
Approach: 121.4
Runway 15 / 33
Dimensions:3234.8 x 45.1m 10613' x 148'ft
Surface:Asphalt
Edge Lights:Medium intensity
Runway 15 [A]Runway 33 [B]
Heading:127°TH 307°TH
Lat:
Lng:
22° 59' 54.34"S
47° 8' 49.27"W
23° 0' 58.82"S
47° 7' 19.29"W
ALS:SALS
User Notes and Comments
23° 0' 26.58" S / 47° 8' 4.28" W
Distance To
Airport ID:
Nearby Airports
(C) Amarais 10.4 NM
SDAM N
(U) Tres Marias 13.2 NM
SDWL SSE 162°
(C) Jundiai 17.1 NM
SBJD SE 134°
(U) AMERICANA 19.4 NM
SDAI NNW 333°
4 Rodrigues 20.1 NM
SIQK NW 320°
4 Itu 26.6 NM
SDIU SSW 207°
(U) Fazenda Vale Eldorado 31.8 NM
SDVH E 89°
VFR Chart
Flight Planning at SkyVector.com